Time;durP1;ratioP1;P1;durP2;ratioP2;P2;SDS_P1;SDS_P2;PMS_P1;PMS_P2;Temp;Humidity;BMP_temperature;BMP_pressure;BME280_temperature;BME280_humidity;BME280_pressure;Samples;Min_cycle;Max_cycle;Signal;HPM_P1;HPM_P2
2024/03/11 00:00:17;;;;;;;0.90;0.90;;;;;;;5.65;97.37;96884.38;6164482;23;19904;-90
2024/03/11 00:02:43;;;;;;;0.70;0.70;;;;;;;5.62;97.51;96893.16;6162555;23;20043;-93
2024/03/11 00:05:11;;;;;;;0.80;0.80;;;;;;;5.57;98.05;96892.19;6162566;23;20005;-92
2024/03/11 00:07:37;;;;;;;0.75;0.75;;;;;;;5.61;98.88;96890.50;6163469;23;20014;-93
2024/03/11 00:10:05;;;;;;;0.88;0.88;;;;;;;5.61;98.06;96893.16;6163837;23;20017;-92
2024/03/11 00:12:36;;;;;;;0.80;0.80;;;;;;;5.57;98.66;96896.59;6163865;23;20005;-88
2024/03/11 00:15:01;;;;;;;0.80;0.80;;;;;;;5.59;98.62;96902.78;6139544;23;20021;-89
2024/03/11 00:17:27;;;;;;;0.80;0.80;;;;;;;5.59;98.70;96898.38;6171179;23;20090;-89
2024/03/11 00:19:52;;;;;;;0.80;0.80;;;;;;;5.60;98.37;96896.63;6170894;23;20021;-88
2024/03/11 00:22:18;;;;;;;0.80;0.80;;;;;;;5.60;98.65;96904.56;6170490;23;19990;-91
2024/03/11 00:24:43;;;;;;;0.77;0.77;;;;;;;5.60;98.84;96908.09;6165542;23;20009;-90
2024/03/11 00:27:09;;;;;;;0.80;0.80;;;;;;;5.62;99.02;96909.03;6163448;23;20013;-90
2024/03/11 00:29:35;;;;;;;0.80;0.80;;;;;;;5.65;98.86;96911.75;6153133;23;20089;-91
2024/03/11 00:32:05;;;;;;;0.90;0.90;;;;;;;5.63;98.63;96912.56;6154275;23;20346;-89
2024/03/11 00:34:32;;;;;;;0.80;0.80;;;;;;;5.65;98.72;96918.75;6154913;23;20019;-92
2024/03/11 00:36:59;;;;;;;0.80;0.80;;;;;;;5.65;98.81;96913.47;6153478;23;20047;-90
2024/03/11 00:39:25;;;;;;;0.80;0.80;;;;;;;5.68;97.47;96916.19;6152775;23;20013;-90
2024/03/11 00:41:51;;;;;;;0.80;0.80;;;;;;;5.72;97.58;96919.78;6153494;23;20096;-89
2024/03/11 00:44:21;;;;;;;0.80;0.80;;;;;;;5.75;95.41;96923.41;6152896;23;20029;-92
2024/03/11 00:46:50;;;;;;;0.70;0.70;;;;;;;5.87;93.90;96926.25;6155231;23;20105;-92
2024/03/11 00:49:17;;;;;;;0.80;0.80;;;;;;;5.87;94.02;96928.00;6155210;23;20013;-91
2024/03/11 00:51:42;;;;;;;0.80;0.80;;;;;;;5.93;93.10;96932.56;6157208;23;20434;-90
2024/03/11 00:54:08;;;;;;;0.80;0.80;;;;;;;6.01;92.08;96936.25;6156678;23;20057;-90
2024/03/11 00:56:33;;;;;;;0.80;0.80;;;;;;;5.93;92.25;96933.44;6155757;23;20052;-93
2024/03/11 00:58:59;;;;;;;0.80;0.80;;;;;;;5.94;92.77;96940.53;6157328;23;20028;-91
2024/03/11 01:01:25;;;;;;;0.80;0.80;;;;;;;5.95;92.57;96944.06;6153685;23;20020;-90
2024/03/11 01:03:53;;;;;;;0.80;0.80;;;;;;;6.04;92.00;96944.25;6154908;23;20013;-92
2024/03/11 01:06:19;;;;;;;0.80;0.80;;;;;;;5.97;92.02;96948.50;6179832;23;20033;-92
2024/03/11 01:08:45;;;;;;;0.80;0.80;;;;;;;5.96;92.34;96951.16;6155730;23;20048;-91
2024/03/11 01:11:11;;;;;;;0.80;0.80;;;;;;;5.97;92.55;96953.81;6155822;23;20020;-91
2024/03/11 01:13:37;;;;;;;0.90;0.90;;;;;;;5.95;92.82;96958.19;6157749;23;20033;-92
2024/03/11 01:16:02;;;;;;;0.90;0.90;;;;;;;5.91;92.65;96959.88;6156024;23;20112;-91
2024/03/11 01:18:28;;;;;;;0.82;0.82;;;;;;;5.97;92.36;96963.50;6155493;23;20044;-92
2024/03/11 01:20:54;;;;;;;0.80;0.80;;;;;;;5.95;93.10;96965.25;6156084;23;20489;-93
2024/03/11 01:23:20;;;;;;;0.85;0.85;;;;;;;6.00;92.11;96963.56;6156855;23;20076;-91
2024/03/11 01:25:46;;;;;;;0.80;0.80;;;;;;;6.00;91.77;96975.06;6155280;23;20339;-89
2024/03/11 01:28:12;;;;;;;0.82;0.82;;;;;;;5.95;93.10;96975.84;6130669;23;20017;-91
2024/03/11 01:30:37;;;;;;;0.90;0.90;;;;;;;5.84;93.58;96976.47;6155941;23;20511;-91
2024/03/11 01:33:05;;;;;;;0.80;0.80;;;;;;;5.95;92.94;96973.19;6155995;23;20013;-92
2024/03/11 01:35:31;;;;;;;0.80;0.80;;;;;;;5.89;93.44;96979.19;6156762;23;20389;-92
2024/03/11 01:37:56;;;;;;;0.80;0.80;;;;;;;5.91;93.43;96970.47;6155677;23;20430;-91
2024/03/11 01:40:22;;;;;;;0.80;0.80;;;;;;;5.92;93.14;96981.94;6154117;23;20308;-91
2024/03/11 01:42:50;;;;;;;0.80;0.80;;;;;;;5.80;93.96;96987.88;6131271;23;20014;-89
2024/03/11 01:45:17;;;;;;;0.90;0.90;;;;;;;5.74;94.74;96985.09;6171893;23;20746;-91
2024/03/11 01:47:43;;;;;;;0.90;0.90;;;;;;;5.90;94.17;96996.88;6170857;23;20006;-89
2024/03/11 01:50:13;;;;;;;0.90;0.90;;;;;;;5.84;94.70;96988.81;6142021;23;20036;-88
2024/03/11 01:53:03;;;;;;;0.82;0.82;;;;;;;5.84;94.03;96994.09;6166549;23;20060;-92
2024/03/11 01:55:30;;;;;;;0.90;0.90;;;;;;;5.90;93.04;96981.91;6169391;23;20041;-89
2024/03/11 01:57:57;;;;;;;0.80;0.80;;;;;;;5.84;94.02;96986.16;6175896;23;20053;-90
2024/03/11 02:00:23;;;;;;;0.80;0.80;;;;;;;5.80;94.45;96982.59;6178522;23;20024;-90
2024/03/11 02:02:53;;;;;;;0.80;0.80;;;;;;;5.78;94.75;96986.94;6178455;23;20004;-91
2024/03/11 02:05:20;;;;;;;0.90;0.90;;;;;;;5.73;95.05;96991.25;6165509;23;20009;-91
2024/03/11 02:07:52;;;;;;;0.80;0.80;;;;;;;5.63;94.85;96991.94;6177173;23;20005;-87
2024/03/11 02:10:19;;;;;;;0.80;0.80;;;;;;;5.64;96.17;96999.88;6200680;23;20040;-89
2024/03/11 02:12:46;;;;;;;;;;;;;;;5.57;95.81;96999.75;6178178;23;20013;-90
2024/03/11 02:15:12;;;;;;;0.90;0.90;;;;;;;5.59;95.37;96990.09;6171194;23;19905;-90
2024/03/11 02:17:39;;;;;;;0.73;0.73;;;;;;;5.65;95.27;96991.13;6172079;23;20013;-89
2024/03/11 02:20:18;;;;;;;0.82;0.82;;;;;;;5.60;96.09;96997.16;6174198;23;20009;-90
2024/03/11 02:22:48;;;;;;;0.80;0.80;;;;;;;5.44;96.60;96993.31;6175085;23;20028;-90
2024/03/11 02:25:15;;;;;;;0.90;0.90;;;;;;;5.33;97.81;96987.78;6173930;23;20028;-88
2024/03/11 02:27:41;;;;;;;0.90;0.90;;;;;;;5.29;97.38;96985.06;6175569;23;20033;-91
2024/03/11 02:30:07;;;;;;;0.80;0.80;;;;;;;5.10;98.50;96994.34;6176397;23;19993;-90
2024/03/11 02:32:37;;;;;;;0.90;0.90;;;;;;;4.90;100.00;96988.59;6175263;23;20105;-90
2024/03/11 02:35:03;;;;;;;0.80;0.80;;;;;;;4.86;100.00;97000.84;6175767;23;20041;-90
2024/03/11 02:37:28;;;;;;;0.70;0.70;;;;;;;4.87;100.00;96992.03;6176611;23;20031;-92
2024/03/11 02:39:55;;;;;;;0.80;0.80;;;;;;;4.74;100.00;96987.31;6152492;23;20012;-89
2024/03/11 02:42:21;;;;;;;0.82;0.82;;;;;;;4.74;100.00;96987.31;6178882;23;20059;-90
2024/03/11 02:44:48;;;;;;;0.90;0.90;;;;;;;4.63;100.00;96995.00;6179441;23;20002;-89
2024/03/11 02:47:13;;;;;;;;;;;;;;;4.59;100.00;96998.41;6178751;23;20017;-92
2024/03/11 02:49:39;;;;;;;0.90;0.90;;;;;;;4.57;100.00;97004.53;6177583;23;19905;-89
2024/03/11 02:52:06;;;;;;;0.80;0.80;;;;;;;4.49;100.00;97001.69;6178173;23;20002;-86
2024/03/11 02:54:32;;;;;;;;;;;;;;;4.35;100.00;97014.53;6180559;23;20032;-92
2024/03/11 02:56:57;;;;;;;1.08;1.08;;;;;;;4.33;100.00;97008.34;6179746;23;19901;-90
2024/03/11 02:59:24;;;;;;;0.90;0.90;;;;;;;4.32;100.00;97016.25;6154607;23;20047;-89
2024/03/11 03:01:50;;;;;;;1.00;1.00;;;;;;;4.25;100.00;97015.16;6179875;23;20017;-88
2024/03/11 03:04:18;;;;;;;1.00;1.00;;;;;;;3.99;100.00;97032.06;6179151;23;20025;-91
2024/03/11 03:06:44;;;;;;;0.90;0.90;;;;;;;4.04;100.00;97033.09;6180352;23;20017;-89
2024/03/11 03:09:10;;;;;;;0.90;0.90;;;;;;;3.92;100.00;97036.28;6179301;23;19997;-91
2024/03/11 03:11:37;;;;;;;0.80;0.80;;;;;;;3.89;100.00;97045.88;6180444;23;20053;-88
2024/03/11 03:14:03;;;;;;;1.00;1.00;;;;;;;4.15;100.00;97043.94;6180520;23;20013;-89
2024/03/11 03:16:31;;;;;;;0.93;0.93;;;;;;;4.28;100.00;97046.03;6179714;23;20014;-88
2024/03/11 03:18:56;;;;;;;0.90;0.90;;;;;;;4.17;100.00;97035.22;6179416;23;20140;-89
2024/03/11 03:21:21;;;;;;;0.90;0.90;;;;;;;4.17;100.00;97043.13;6179380;23;20040;-88
2024/03/11 03:23:47;;;;;;;0.88;0.88;;;;;;;4.03;100.00;97045.41;6155322;23;20005;-90
2024/03/11 03:26:13;;;;;;;0.80;0.80;;;;;;;3.87;100.00;97045.81;6180477;23;20009;-92
2024/03/11 03:28:39;;;;;;;1.00;1.00;;;;;;;3.97;100.00;97036.41;6179960;23;20049;-90
2024/03/11 03:31:05;;;;;;;0.93;0.93;;;;;;;4.19;100.00;97041.41;6178782;23;19997;-91
2024/03/11 03:33:31;;;;;;;1.00;1.00;;;;;;;4.09;100.00;97053.47;6152969;23;20085;-89
2024/03/11 03:35:58;;;;;;;0.80;0.80;;;;;;;4.21;100.00;97047.59;6178615;23;20005;-91
2024/03/11 03:38:24;;;;;;;0.90;0.90;;;;;;;4.11;100.00;97046.47;6153375;23;20017;-90
2024/03/11 03:40:50;;;;;;;0.82;0.82;;;;;;;4.08;100.00;97048.16;6153413;23;20052;-89
2024/03/11 03:43:16;;;;;;;0.95;0.95;;;;;;;3.69;100.00;97042.66;6178026;23;20005;-87
2024/03/11 03:45:42;;;;;;;0.90;0.90;;;;;;;3.47;100.00;97047.31;6176185;23;20017;-91
2024/03/11 03:48:07;;;;;;;0.90;0.90;;;;;;;3.33;100.00;97046.00;6175341;23;19994;-89
2024/03/11 03:50:33;;;;;;;1.00;1.00;;;;;;;3.35;100.00;97054.84;6175722;23;20037;-90
2024/03/11 03:53:00;;;;;;;1.00;1.00;;;;;;;3.27;100.00;97059.00;6174589;23;20001;-91
2024/03/11 03:55:26;;;;;;;0.75;0.75;;;;;;;3.34;100.00;97058.34;6176537;23;19998;-91
2024/03/11 03:57:53;;;;;;;;;;;;;;;3.56;100.00;97058.13;6175763;23;20065;-90
2024/03/11 04:00:20;;;;;;;0.80;0.80;;;;;;;3.66;100.00;97063.66;6177247;23;19909;-88
2024/03/11 04:02:50;;;;;;;;;;;;;;;3.84;100.00;97069.47;6153895;23;20013;-89
2024/03/11 04:05:17;;;;;;;0.90;0.90;;;;;;;3.87;100.00;97066.91;6178649;23;20027;-92
2024/03/11 04:07:43;;;;;;;1.00;1.00;;;;;;;3.84;100.00;97064.19;6154520;23;20005;-91
2024/03/11 04:10:17;;;;;;;0.90;0.90;;;;;;;3.88;100.00;97063.44;6180216;23;20021;-89
2024/03/11 04:12:47;;;;;;;0.98;0.98;;;;;;;3.90;100.00;97069.66;6178716;23;20040;-89
2024/03/11 04:15:21;;;;;;;0.90;0.90;;;;;;;3.73;100.00;97071.78;6177379;23;20010;-89
2024/03/11 04:17:53;;;;;;;0.95;0.95;;;;;;;3.50;100.00;97070.25;6176662;23;20030;-89
2024/03/11 04:20:29;;;;;;;0.90;0.90;;;;;;;3.28;100.00;97066.06;6173522;23;20009;-90
2024/03/11 04:22:55;;;;;;;0.80;0.80;;;;;;;3.09;100.00;97067.25;6178337;23;20025;-89
2024/03/11 04:25:23;;;;;;;1.00;1.00;;;;;;;2.98;100.00;97073.91;6180025;23;20013;-90
2024/03/11 04:27:50;;;;;;;;;;;;;;;3.17;100.00;97073.66;6167475;23;20013;-92
2024/03/11 04:30:21;;;;;;;0.95;0.95;;;;;;;2.96;100.00;97065.06;6161843;23;19912;-89
2024/03/11 04:32:53;;;;;;;1.00;1.00;;;;;;;3.02;100.00;97075.81;6163996;23;20017;-91
2024/03/11 04:35:26;;;;;;;0.88;0.88;;;;;;;2.69;100.00;97068.59;6162542;23;20041;-92
2024/03/11 04:38:08;;;;;;;0.90;0.90;;;;;;;2.57;100.00;97078.72;6162823;23;20055;-90
2024/03/11 04:40:43;;;;;;;0.90;0.90;;;;;;;2.28;100.00;97078.63;6178338;23;20009;-90
2024/03/11 04:43:10;;;;;;;0.90;0.90;;;;;;;2.12;100.00;97078.06;6177371;23;20021;-89
2024/03/11 04:45:39;;;;;;;0.93;0.93;;;;;;;2.35;100.00;97082.38;6178263;23;20033;-92
2024/03/11 04:48:07;;;;;;;0.90;0.90;;;;;;;2.65;100.00;97076.34;6178657;23;20014;-90
2024/03/11 04:50:33;;;;;;;0.90;0.90;;;;;;;2.34;100.00;97077.94;6181382;23;20001;-89
2024/03/11 04:53:06;;;;;;;0.82;0.82;;;;;;;2.13;100.00;97079.84;6181184;23;20021;-91
2024/03/11 04:55:33;;;;;;;0.90;0.90;;;;;;;2.35;100.00;97087.66;6181001;23;20094;-92
2024/03/11 04:57:59;;;;;;;1.00;1.00;;;;;;;2.28;100.00;97093.53;6180462;23;20008;-90
2024/03/11 05:00:26;;;;;;;1.00;1.00;;;;;;;2.36;100.00;97091.16;6179893;23;20017;-91
2024/03/11 05:02:54;;;;;;;0.90;0.90;;;;;;;2.65;100.00;97095.69;6177175;23;20005;-89
2024/03/11 05:05:20;;;;;;;1.00;1.00;;;;;;;2.39;100.00;97093.88;6178816;23;20028;-91
2024/03/11 05:07:45;;;;;;;0.90;0.90;;;;;;;2.21;100.00;97096.78;6178387;23;20020;-91
2024/03/11 05:10:13;;;;;;;0.90;0.90;;;;;;;2.14;100.00;97098.28;6176083;23;19997;-91
2024/03/11 05:12:40;;;;;;;1.00;1.00;;;;;;;2.17;100.00;97111.56;6199070;23;20006;-93
2024/03/11 05:15:06;;;;;;;1.10;1.10;;;;;;;2.10;100.00;97104.28;6147141;23;20020;-93
2024/03/11 05:17:31;;;;;;;1.00;1.00;;;;;;;2.29;100.00;97103.19;6147138;23;20005;-91
2024/03/11 05:19:59;;;;;;;1.00;1.00;;;;;;;1.84;100.00;97108.63;6170122;23;20009;-91
2024/03/11 05:22:26;;;;;;;0.90;0.90;;;;;;;1.68;100.00;97112.44;6170416;23;20016;-90
2024/03/11 05:24:59;;;;;;;1.00;1.00;;;;;;;1.70;100.00;97110.75;6190070;23;20072;-94
2024/03/11 05:27:34;;;;;;;1.00;1.00;;;;;;;1.50;100.00;97122.25;6169821;23;20066;-90
2024/03/11 05:30:15;;;;;;;1.00;1.00;;;;;;;1.41;100.00;97127.16;6181452;23;20021;-91
2024/03/11 05:32:57;;;;;;;1.10;1.10;;;;;;;1.56;100.00;97125.09;6182068;23;20011;-91
2024/03/11 05:35:31;;;;;;;1.00;1.00;;;;;;;1.41;100.00;97132.41;6181322;23;20002;-91
2024/03/11 05:38:04;;;;;;;0.90;0.90;;;;;;;1.34;100.00;97136.50;6180882;23;20009;-90
2024/03/11 05:40:36;;;;;;;1.00;1.00;;;;;;;1.15;100.00;97141.88;6181362;23;20057;-90
2024/03/11 05:43:03;;;;;;;1.00;1.00;;;;;;;1.37;100.00;97147.13;6156791;23;20014;-90
2024/03/11 05:45:35;;;;;;;1.00;1.00;;;;;;;1.25;100.00;97149.31;6179426;23;20044;-90
2024/03/11 05:48:03;;;;;;;1.00;1.00;;;;;;;1.25;100.00;97158.06;6205157;23;20006;-91
2024/03/11 05:50:29;;;;;;;1.00;1.00;;;;;;;1.19;100.00;97151.66;6180050;23;20017;-91
2024/03/11 05:53:05;;;;;;;1.00;1.00;;;;;;;1.48;100.00;97161.56;6180236;23;20053;-91
2024/03/11 05:55:33;;;;;;;1.00;1.00;;;;;;;1.60;100.00;97174.31;6180574;23;20017;-90
2024/03/11 05:58:08;;;;;;;1.00;1.00;;;;;;;1.49;100.00;97173.91;6178603;23;20211;-92
2024/03/11 06:00:46;;;;;;;1.10;1.10;;;;;;;1.48;100.00;97173.81;6178252;23;20006;-91
2024/03/11 06:03:13;;;;;;;1.00;1.00;;;;;;;1.21;100.00;97187.69;6176763;23;20072;-90
2024/03/11 06:05:43;;;;;;;0.90;0.90;;;;;;;1.22;100.00;97186.84;6176761;23;20001;-91
2024/03/11 06:08:09;;;;;;;1.10;1.10;;;;;;;1.62;100.00;97191.03;6201154;23;20009;-90
2024/03/11 06:10:35;;;;;;;1.00;1.00;;;;;;;1.52;100.00;97197.66;6175609;23;20005;-92
2024/03/11 06:13:01;;;;;;;1.00;1.00;;;;;;;1.28;100.00;97197.59;6175987;23;20014;-92
2024/03/11 06:15:27;;;;;;;1.00;1.00;;;;;;;1.19;100.00;97205.09;6174927;23;20032;-91
2024/03/11 06:17:53;;;;;;;1.00;1.00;;;;;;;1.27;100.00;97203.69;6175686;23;20017;-90
2024/03/11 06:20:20;;;;;;;1.05;1.05;;;;;;;1.56;100.00;97197.78;6152494;23;20002;-91
2024/03/11 06:22:55;;;;;;;1.00;1.00;;;;;;;1.63;100.00;97205.06;6177735;23;20006;-90
2024/03/11 06:25:40;;;;;;;1.10;1.10;;;;;;;2.03;100.00;97205.75;6173567;23;20025;-90
2024/03/11 06:28:10;;;;;;;1.10;1.10;;;;;;;2.04;100.00;97206.66;6148089;23;20144;-91
2024/03/11 06:30:47;;;;;;;1.10;1.10;;;;;;;2.27;100.00;97202.25;6197750;23;20001;-90
2024/03/11 06:33:34;;;;;;;1.10;1.10;;;;;;;2.55;100.00;97210.31;6175649;23;20005;-90
2024/03/11 06:36:05;;;;;;;1.00;1.00;;;;;;;3.00;100.00;97206.56;6170971;23;20037;-93
2024/03/11 06:38:34;;;;;;;1.00;1.00;;;;;;;3.34;100.00;97214.75;6191642;23;20032;-91
2024/03/11 06:41:08;;;;;;;1.08;1.08;;;;;;;3.67;100.00;97214.03;6167416;23;20040;-91
2024/03/11 06:43:44;;;;;;;1.00;1.00;;;;;;;3.94;100.00;97216.63;6165246;23;19997;-91
2024/03/11 06:46:11;;;;;;;0.90;0.90;;;;;;;4.37;100.00;97234.63;6193652;23;20017;-91
2024/03/11 06:48:45;;;;;;;0.90;0.90;;;;;;;4.76;98.79;97233.97;6171837;23;20002;-89
2024/03/11 06:51:13;;;;;;;;;;;;;;;5.21;96.47;97227.22;6192795;23;20244;-92
2024/03/11 06:53:50;;;;;;;0.82;0.82;;;;;;;5.47;94.43;97233.19;6169199;23;19909;-91
2024/03/11 06:56:18;;;;;;;0.90;0.90;;;;;;;5.40;92.33;97240.94;6145580;23;20009;-90
2024/03/11 06:58:44;;;;;;;0.88;0.88;;;;;;;5.72;91.50;97243.50;6175075;23;20001;-89
2024/03/11 07:01:15;;;;;;;0.80;0.80;;;;;;;6.36;90.76;97239.66;6174220;23;20006;-91
2024/03/11 07:03:45;;;;;;;0.70;0.70;;;;;;;6.43;90.19;97246.00;6175755;23;20001;-91
2024/03/11 07:06:12;;;;;;;0.73;0.73;;;;;;;7.06;87.48;97242.84;6174273;23;20018;-90
2024/03/11 07:08:38;;;;;;;0.70;0.70;;;;;;;7.41;88.50;97238.19;6176685;23;19993;-92
2024/03/11 07:11:05;;;;;;;0.70;0.70;;;;;;;7.93;86.13;97236.38;6174697;23;20032;-91
2024/03/11 07:13:37;;;;;;;0.70;0.70;;;;;;;8.44;85.52;97242.47;6175428;23;20009;-89
2024/03/11 07:16:06;;;;;;;0.60;0.60;;;;;;;9.11;84.78;97245.06;6176168;23;20009;-90
2024/03/11 07:18:35;;;;;;;0.60;0.60;;;;;;;9.53;82.36;97241.91;6174610;23;20025;-90
2024/03/11 07:21:05;;;;;;;0.60;0.60;;;;;;;9.66;80.43;97245.59;6177354;23;20036;-91
2024/03/11 07:23:33;;;;;;;0.60;0.60;;;;;;;9.96;78.07;97243.16;6174812;23;20016;-91
2024/03/11 07:25:59;;;;;;;0.57;0.57;;;;;;;9.94;74.53;97242.25;6174960;23;20045;-90
2024/03/11 07:28:26;;;;;;;0.60;0.60;;;;;;;10.20;75.34;97247.75;6175469;23;20013;-90
2024/03/11 07:30:55;;;;;;;0.60;0.60;;;;;;;10.47;77.39;97255.09;6169737;23;20044;-90
2024/03/11 07:33:22;;;;;;;0.47;0.47;;;;;;;11.05;73.55;97252.69;6146818;23;20005;-90
2024/03/11 07:35:51;;;;;;;0.50;0.50;;;;;;;10.82;71.31;97254.38;6172533;23;20021;-89
2024/03/11 07:38:23;;;;;;;0.50;0.50;;;;;;;11.77;68.88;97251.94;6147460;23;20004;-90
2024/03/11 07:40:49;;;;;;;0.50;0.50;;;;;;;10.94;70.70;97259.75;6168677;23;20013;-92
2024/03/11 07:43:15;;;;;;;0.50;0.50;;;;;;;11.72;67.35;97259.94;6165499;23;20021;-93
2024/03/11 07:45:42;;;;;;;0.50;0.50;;;;;;;10.09;65.90;97264.56;6158850;23;20016;-92
2024/03/11 07:48:14;;;;;;;0.60;0.60;;;;;;;11.49;66.79;97259.03;6156557;23;20010;-93
2024/03/11 07:50:41;;;;;;;0.40;0.40;;;;;;;11.35;63.87;97268.78;6156726;23;20032;-93
2024/03/11 07:53:08;;;;;;;0.43;0.43;;;;;;;12.62;63.46;97269.72;6155730;23;20017;-94
2024/03/11 07:55:36;;;;;;;0.40;0.40;;;;;;;13.09;62.33;97274.91;6155762;23;20009;-91
2024/03/11 07:58:02;;;;;;;0.40;0.40;;;;;;;13.13;58.96;97274.88;6154894;23;20028;-89
2024/03/11 08:00:35;;;;;;;0.30;0.30;;;;;;;12.86;58.71;97276.78;6156692;23;20020;-93
2024/03/11 08:03:03;;;;;;;0.40;0.40;;;;;;;13.16;56.85;97278.44;6155600;23;20013;-91
2024/03/11 08:05:29;;;;;;;0.30;0.30;;;;;;;13.30;54.78;97275.75;6155350;23;20021;-92
2024/03/11 08:07:56;;;;;;;0.30;0.30;;;;;;;13.16;57.65;97280.25;6130105;23;20029;-89
2024/03/11 08:10:22;;;;;;;0.30;0.30;;;;;;;14.05;53.18;97281.53;6154735;23;20087;-90
2024/03/11 08:12:48;;;;;;;0.38;0.38;;;;;;;13.21;55.11;97289.16;6155828;23;20486;-90
2024/03/11 08:15:15;;;;;;;0.40;0.40;;;;;;;13.57;55.63;97288.13;6155329;23;20016;-90
2024/03/11 08:17:47;;;;;;;0.40;0.40;;;;;;;14.19;52.06;97286.78;6157093;23;20076;-90
2024/03/11 08:20:17;;;;;;;0.40;0.40;;;;;;;13.91;53.37;97294.13;6130573;23;20018;-91
2024/03/11 08:22:54;;;;;;;0.30;0.30;;;;;;;12.69;54.51;97310.72;6156175;23;20009;-91
2024/03/11 08:25:27;;;;;;;0.40;0.40;;;;;;;13.39;55.22;97318.56;6156883;23;20013;-91
2024/03/11 08:27:54;;;;;;;0.40;0.40;;;;;;;12.71;55.68;97311.63;6157237;23;20385;-90
2024/03/11 08:30:28;;;;;;;0.50;0.50;;;;;;;12.25;57.29;97314.34;6151451;23;20013;-89
2024/03/11 08:32:54;;;;;;;0.40;0.40;;;;;;;13.60;54.05;97313.06;6153848;23;20017;-90
2024/03/11 08:35:24;;;;;;;0.40;0.40;;;;;;;12.37;57.30;97317.03;6151141;23;20064;-89
2024/03/11 08:37:50;;;;;;;0.43;0.43;;;;;;;11.59;58.47;97322.25;6153472;23;20014;-88
2024/03/11 08:40:19;;;;;;;0.40;0.40;;;;;;;10.87;59.01;97332.66;6153229;23;20037;-86
2024/03/11 08:42:45;;;;;;;0.50;0.50;;;;;;;11.46;59.17;97331.16;6154254;23;20013;-88
2024/03/11 08:45:17;;;;;;;0.60;0.60;;;;;;;11.90;58.48;97325.03;6154267;23;20445;-89
2024/03/11 08:47:44;;;;;;;0.50;0.50;;;;;;;12.25;56.08;97325.94;6156320;23;20021;-87
2024/03/11 08:50:10;;;;;;;0.50;0.50;;;;;;;11.94;56.79;97330.38;6156386;23;20057;-90
2024/03/11 08:52:35;;;;;;;0.50;0.50;;;;;;;11.50;57.57;97330.28;6154104;23;20457;-89
2024/03/11 08:55:07;;;;;;;0.50;0.50;;;;;;;12.02;57.30;97330.38;6153667;23;20083;-88
2024/03/11 08:57:37;;;;;;;0.50;0.50;;;;;;;12.53;54.80;97332.16;6153445;23;20017;-88
2024/03/11 09:00:06;;;;;;;0.50;0.50;;;;;;;12.72;55.50;97330.34;6170638;23;20054;-87
2024/03/11 09:02:32;;;;;;;0.50;0.50;;;;;;;13.02;52.99;97333.84;6173326;23;20032;-87
2024/03/11 09:04:57;;;;;;;0.45;0.45;;;;;;;13.38;51.69;97327.50;6174698;23;20036;-88
2024/03/11 09:07:25;;;;;;;0.50;0.50;;;;;;;12.52;53.47;97322.38;6175680;23;20033;-86
2024/03/11 09:09:50;;;;;;;;;;;;;;;13.15;53.63;97327.56;6177174;23;20014;-88
2024/03/11 09:12:16;;;;;;;0.50;0.50;;;;;;;14.10;50.88;97330.66;6175316;23;19927;-89
2024/03/11 09:14:41;;;;;;;0.40;0.40;;;;;;;13.97;49.97;97325.38;6177086;23;20347;-87
2024/03/11 09:17:07;;;;;;;0.43;0.43;;;;;;;13.26;51.11;97328.44;6170229;23;20014;-87
2024/03/11 09:19:32;;;;;;;0.40;0.40;;;;;;;14.84;47.15;97330.03;6148319;23;20068;-88
2024/03/11 09:21:58;;;;;;;0.40;0.40;;;;;;;14.80;46.10;97328.28;6175419;23;20001;-87
2024/03/11 09:24:24;;;;;;;0.40;0.40;;;;;;;16.23;43.19;97325.53;6178260;23;20006;-89
2024/03/11 09:26:51;;;;;;;0.40;0.40;;;;;;;14.77;45.76;97336.38;6177746;23;20014;-89
2024/03/11 09:29:22;;;;;;;0.40;0.40;;;;;;;15.59;43.94;97339.91;6155276;23;20243;-89
2024/03/11 09:31:48;;;;;;;0.40;0.40;;;;;;;16.68;41.55;97334.69;6180841;23;20010;-90
2024/03/11 09:34:15;;;;;;;0.40;0.40;;;;;;;14.96;44.91;97353.19;6177696;23;20021;-89
2024/03/11 09:36:41;;;;;;;0.40;0.40;;;;;;;14.95;44.89;97355.00;6178318;23;20002;-88
2024/03/11 09:39:11;;;;;;;0.30;0.30;;;;;;;15.72;43.35;97344.25;6178443;23;20004;-88
2024/03/11 09:41:42;;;;;;;0.30;0.30;;;;;;;14.63;44.38;97356.19;6177728;23;20014;-88
2024/03/11 09:44:15;;;;;;;0.30;0.30;;;;;;;16.49;41.52;97346.69;6176281;23;20033;-89
2024/03/11 09:46:45;;;;;;;0.20;0.20;;;;;;;17.70;39.58;97350.69;6178303;23;20016;-89
2024/03/11 09:49:15;;;;;;;0.30;0.30;;;;;;;17.01;40.57;97351.19;6176840;23;20198;-89
2024/03/11 09:51:53;;;;;;;0.30;0.30;;;;;;;17.19;40.39;97353.50;6176242;23;20021;-88
2024/03/11 09:54:21;;;;;;;0.30;0.30;;;;;;;17.28;40.41;97362.34;6176934;23;20011;-88
2024/03/11 09:56:48;;;;;;;0.30;0.30;;;;;;;17.73;38.57;97356.97;6173335;23;19989;-89
2024/03/11 09:59:18;;;;;;;;;;;;;;;16.13;40.42;97358.91;6171098;23;20017;-88
2024/03/11 10:01:49;;;;;;;0.30;0.30;;;;;;;17.70;37.68;97356.09;6172071;23;19928;-89
2024/03/11 10:04:20;;;;;;;0.20;0.20;;;;;;;18.51;35.21;97366.88;6168810;23;20459;-89
2024/03/11 10:06:56;;;;;;;0.30;0.30;;;;;;;18.02;37.60;97359.06;6141029;23;20041;-88
2024/03/11 10:09:31;;;;;;;0.20;0.20;;;;;;;17.93;36.96;97373.63;6164025;23;20024;-88
2024/03/11 10:12:08;;;;;;;0.10;0.10;;;;;;;16.54;39.13;97369.03;6165455;23;20013;-89
2024/03/11 10:14:35;;;;;;;0.30;0.30;;;;;;;15.71;41.57;97376.53;6189548;23;20005;-88
2024/03/11 10:17:20;;;;;;;0.30;0.30;;;;;;;16.88;39.43;97365.78;6162525;23;20072;-88
2024/03/11 10:19:59;;;;;;;0.20;0.20;;;;;;;16.30;39.95;97372.13;6159692;23;20014;-87
2024/03/11 10:22:30;;;;;;;0.40;0.40;;;;;;;16.60;39.78;97385.06;6152756;23;20028;-88
2024/03/11 10:24:57;;;;;;;0.40;0.40;;;;;;;17.43;39.86;97380.91;6155353;23;20487;-87
2024/03/11 10:27:24;;;;;;;0.30;0.30;;;;;;;18.61;36.83;97365.72;6155299;23;20048;-88
2024/03/11 10:29:50;;;;;;;0.30;0.30;;;;;;;19.44;33.80;97363.56;6155126;23;20151;-89
2024/03/11 10:32:45;;;;;;;0.30;0.30;;;;;;;19.25;35.46;97371.31;6151829;23;20017;-87
2024/03/11 10:35:20;;;;;;;0.20;0.20;;;;;;;17.80;38.27;97366.72;6138429;23;20017;-88
2024/03/11 10:37:46;;;;;;;0.20;0.20;;;;;;;16.36;41.02;97380.09;6151218;23;20080;-89
2024/03/11 10:40:19;;;;;;;0.20;0.20;;;;;;;15.09;43.72;97379.91;6153969;23;20017;-87
2024/03/11 10:42:55;;;;;;;0.30;0.30;;;;;;;14.28;45.44;97390.44;6150263;23;20021;-87
2024/03/11 10:45:35;;;;;;;0.50;0.50;;;;;;;16.80;39.63;97379.38;6149439;23;20453;-87
2024/03/11 10:48:01;;;;;;;0.40;0.40;;;;;;;18.66;36.43;97371.91;6148149;23;20043;-87
2024/03/11 10:50:28;;;;;;;0.30;0.30;;;;;;;19.52;34.13;97366.97;6148476;23;20636;-88
2024/03/11 10:52:59;;;;;;;0.30;0.30;;;;;;;20.72;33.29;97354.28;6150404;23;20063;-86
2024/03/11 10:55:32;;;;;;;0.30;0.30;;;;;;;21.03;31.09;97353.22;6151692;23;20024;-88
2024/03/11 10:58:04;;;;;;;0.20;0.20;;;;;;;20.56;31.84;97344.88;6151115;23;20313;-88
2024/03/11 11:00:35;;;;;;;0.10;0.10;;;;;;;19.31;35.37;97352.22;6151330;23;20091;-89
2024/03/11 11:03:12;;;;;;;0.25;0.25;;;;;;;20.35;32.65;97350.94;6163828;23;20017;-88
2024/03/11 11:05:52;;;;;;;0.20;0.20;;;;;;;22.12;30.73;97349.28;6166093;23;20133;-89
2024/03/11 11:08:31;;;;;;;0.20;0.20;;;;;;;22.28;30.75;97343.19;6168651;23;20014;-87
2024/03/11 11:10:58;;;;;;;0.20;0.20;;;;;;;23.18;27.84;97335.81;6167383;23;20006;-88
2024/03/11 11:13:29;;;;;;;0.20;0.20;;;;;;;22.80;28.97;97340.16;6155291;23;20013;-89
2024/03/11 11:15:58;;;;;;;0.20;0.20;;;;;;;23.13;27.38;97334.25;6158260;23;20355;-88
2024/03/11 11:18:24;;;;;;;0.10;0.10;;;;;;;19.53;32.16;97340.78;6156773;23;20017;-88
2024/03/11 11:20:52;;;;;;;0.30;0.30;;;;;;;17.57;36.62;97359.06;6153005;23;20005;-87
2024/03/11 11:23:28;;;;;;;0.30;0.30;;;;;;;19.57;32.28;97348.78;6150532;23;20345;-87
2024/03/11 11:25:56;;;;;;;0.30;0.30;;;;;;;19.75;32.57;97341.97;6153020;23;20397;-88
2024/03/11 11:28:37;;;;;;;0.30;0.30;;;;;;;19.55;33.09;97347.06;6168309;23;20009;-86
2024/03/11 11:31:26;;;;;;;0.20;0.20;;;;;;;19.13;33.96;97344.63;6175601;23;20028;-87
2024/03/11 11:33:54;;;;;;;0.40;0.40;;;;;;;17.24;38.64;97353.41;6175750;23;20005;-86
2024/03/11 11:36:29;;;;;;;0.30;0.30;;;;;;;20.58;31.98;97343.00;6174841;23;20012;-87
2024/03/11 11:38:56;;;;;;;0.30;0.30;;;;;;;21.99;29.09;97330.72;6163529;23;20048;-87
2024/03/11 11:41:35;;;;;;;0.25;0.25;;;;;;;22.36;28.23;97331.13;6160351;23;20035;-87
2024/03/11 11:44:00;;;;;;;0.20;0.20;;;;;;;23.11;27.62;97331.63;6158893;23;20060;-87
2024/03/11 11:46:48;;;;;;;0.30;0.30;;;;;;;22.41;29.78;97334.53;6157379;23;20831;-88